Hattiesburg, MS (39401)

1:24 PM CDT on March 30, 2015 (GMT -0500)
University Heights | | Change Station
CLOSE
Current Station
Personal Weather Station
Location: Hattiesburg, MS
Elevation: 246 ft
Nearby Weather Stations

Elev 246 ft 31.31 °N, 89.34 °W | Updated 9 minutes ago

Partly Cloudy
Partly Cloudy
80.6 °F
Feels Like 81 °F
N
4.4
Wind Variable Wind from SW
Gusts 8.3 mph

Today
High -- | Low -- °F
--% Chance of Precip.
Yesterday
High -- | Low -- °F
Precip. -- in
6:48 AM 7:15 PM
Waxing Gibbous, 81% visible
Pressure 30.20 in
Visibility 10.0 miles
Clouds Few 4600 ft
Heat Index 81 °F
Dew Point 57 °F
Humidity 44%
Rainfall 0.00 in
Snow Depth Not available.
UV 11 out of 12
Pollen 9.80 out of 12
Air Quality Not available.
Flu Activity Not available.
METAR KHBG 301753Z AUTO 26011G20KT 220V310 10SM FEW046 26/14 A3021 RMK AO2 SLP227 T02610144 10261 20150 58014

More Conditions Fewer Conditions

Pressure 30.20 in
Visibility 10.0 miles
Clouds Few 4600 ft
Heat Index 81 °F
Dew Point 57 °F
Humidity 44%
Rainfall 0.00 in
Snow Depth Not available.
UV 11 out of 12
Pollen 9.80 out of 12
Air Quality Not available.
Flu Activity Not available.
METAR KHBG 301753Z AUTO 26011G20KT 220V310 10SM FEW046 26/14 A3021 RMK AO2 SLP227 T02610144 10261 20150 58014

More Conditions Fewer Conditions

10-Day Weather Forecast

Almanac

Astronomy

Mar. 30, 2015 Rise Set
Actual Time
Civil Twilight
Nautical Twilight
Astronomical Twilight
Moon
Length of Visible Light
Length of Day
Tomorrow will be .
, % of the Moon is Illuminated

Today's Extremes

State Highs State Lows

Community

WunderPhotos

Upload Photos

1,809,561 photos uploaded!

WunderBlogs® & News

Nearby

Air Quality

  Air Quality AQ Index Pollutant
Not available.

Snow Depth

Station Depth Elevation

Earthquake Activity

City Distance Mag. Time & Date
Minimum magnitude displayed is 2.5.

Coastal Water Temperatures

Place Temperature

Stations

Nearby Weather Stations

Station Location Temp. Windchill Dew Point Humidity Wind Precip. Elev Updated Type